sensor_id;sensor_type;location;lat;lon;timestamp;P1;durP1;ratioP1;P2;durP2;ratioP2
1479;SDS011;732;51.698;4.886;2022-08-14T00:02:23;5.93;;;4.60;;
1479;SDS011;732;51.698;4.886;2022-08-14T00:04:57;4.93;;;4.53;;
1479;SDS011;732;51.698;4.886;2022-08-14T00:07:25;5.67;;;4.77;;
1479;SDS011;732;51.698;4.886;2022-08-14T00:09:55;5.40;;;4.90;;
1479;SDS011;732;51.698;4.886;2022-08-14T00:12:44;5.47;;;4.97;;
1479;SDS011;732;51.698;4.886;2022-08-14T00:15:23;5.10;;;4.70;;
1479;SDS011;732;51.698;4.886;2022-08-14T00:18:10;6.23;;;5.63;;
1479;SDS011;732;51.698;4.886;2022-08-14T00:21:02;5.77;;;5.27;;
1479;SDS011;732;51.698;4.886;2022-08-14T00:23:36;10.27;;;7.23;;
1479;SDS011;732;51.698;4.886;2022-08-14T00:26:07;8.67;;;7.03;;
1479;SDS011;732;51.698;4.886;2022-08-14T00:28:47;7.70;;;6.87;;
1479;SDS011;732;51.698;4.886;2022-08-14T00:31:16;9.30;;;7.67;;
1479;SDS011;732;51.698;4.886;2022-08-14T00:34:00;7.07;;;6.37;;
1479;SDS011;732;51.698;4.886;2022-08-14T00:36:49;8.70;;;7.70;;
1479;SDS011;732;51.698;4.886;2022-08-14T00:39:18;8.20;;;6.77;;
1479;SDS011;732;51.698;4.886;2022-08-14T00:41:48;7.00;;;6.30;;
1479;SDS011;732;51.698;4.886;2022-08-14T00:44:17;8.27;;;6.87;;
1479;SDS011;732;51.698;4.886;2022-08-14T00:46:58;8.43;;;7.00;;
1479;SDS011;732;51.698;4.886;2022-08-14T00:49:28;10.80;;;7.70;;
1479;SDS011;732;51.698;4.886;2022-08-14T00:52:07;8.60;;;7.10;;
1479;SDS011;732;51.698;4.886;2022-08-14T00:54:40;10.13;;;8.07;;
1479;SDS011;732;51.698;4.886;2022-08-14T00:57:10;9.13;;;8.20;;
1479;SDS011;732;51.698;4.886;2022-08-14T00:59:38;14.50;;;9.03;;
1479;SDS011;732;51.698;4.886;2022-08-14T01:02:07;8.20;;;7.40;;
1479;SDS011;732;51.698;4.886;2022-08-14T01:04:37;9.37;;;7.57;;
1479;SDS011;732;51.698;4.886;2022-08-14T01:07:20;9.40;;;7.70;;
1479;SDS011;732;51.698;4.886;2022-08-14T01:09:53;10.27;;;9.10;;
1479;SDS011;732;51.698;4.886;2022-08-14T01:12:28;10.23;;;9.23;;
1479;SDS011;732;51.698;4.886;2022-08-14T01:14:58;9.93;;;8.80;;
1479;SDS011;732;51.698;4.886;2022-08-14T01:17:29;9.50;;;7.80;;
1479;SDS011;732;51.698;4.886;2022-08-14T01:20:15;10.10;;;8.50;;
1479;SDS011;732;51.698;4.886;2022-08-14T01:23:08;9.97;;;8.93;;
1479;SDS011;732;51.698;4.886;2022-08-14T01:25:44;9.90;;;8.90;;
1479;SDS011;732;51.698;4.886;2022-08-14T01:28:17;9.57;;;8.67;;
1479;SDS011;732;51.698;4.886;2022-08-14T01:31:07;13.67;;;10.60;;
1479;SDS011;732;51.698;4.886;2022-08-14T01:33:40;11.07;;;9.10;;
1479;SDS011;732;51.698;4.886;2022-08-14T01:36:26;9.53;;;8.50;;
1479;SDS011;732;51.698;4.886;2022-08-14T01:39:03;11.00;;;9.07;;
1479;SDS011;732;51.698;4.886;2022-08-14T01:41:38;11.43;;;9.60;;
1479;SDS011;732;51.698;4.886;2022-08-14T01:44:09;12.07;;;9.50;;
1479;SDS011;732;51.698;4.886;2022-08-14T01:47:00;10.83;;;9.73;;
1479;SDS011;732;51.698;4.886;2022-08-14T01:49:47;15.33;;;8.70;;
1479;SDS011;732;51.698;4.886;2022-08-14T01:52:29;11.43;;;9.40;;
1479;SDS011;732;51.698;4.886;2022-08-14T01:55:23;10.47;;;9.37;;
1479;SDS011;732;51.698;4.886;2022-08-14T01:57:58;13.27;;;10.20;;
1479;SDS011;732;51.698;4.886;2022-08-14T02:00:47;11.33;;;10.13;;
1479;SDS011;732;51.698;4.886;2022-08-14T02:03:20;14.93;;;10.83;;
1479;SDS011;732;51.698;4.886;2022-08-14T02:05:56;12.73;;;10.67;;
1479;SDS011;732;51.698;4.886;2022-08-14T02:08:45;12.03;;;9.97;;
1479;SDS011;732;51.698;4.886;2022-08-14T02:11:22;12.10;;;10.47;;
1479;SDS011;732;51.698;4.886;2022-08-14T02:13:55;11.93;;;10.27;;
1479;SDS011;732;51.698;4.886;2022-08-14T02:16:33;12.47;;;10.40;;
1479;SDS011;732;51.698;4.886;2022-08-14T02:19:06;15.33;;;10.80;;
1479;SDS011;732;51.698;4.886;2022-08-14T02:21:37;12.50;;;10.53;;
1479;SDS011;732;51.698;4.886;2022-08-14T02:24:15;14.47;;;11.37;;
1479;SDS011;732;51.698;4.886;2022-08-14T02:27:07;14.00;;;11.60;;
1479;SDS011;732;51.698;4.886;2022-08-14T02:29:56;12.80;;;10.77;;
1479;SDS011;732;51.698;4.886;2022-08-14T02:32:28;11.83;;;10.60;;
1479;SDS011;732;51.698;4.886;2022-08-14T02:35:14;12.43;;;11.10;;
1479;SDS011;732;51.698;4.886;2022-08-14T02:37:44;15.77;;;10.53;;
1479;SDS011;732;51.698;4.886;2022-08-14T02:40:15;13.87;;;11.70;;
1479;SDS011;732;51.698;4.886;2022-08-14T02:42:46;15.43;;;13.67;;
1479;SDS011;732;51.698;4.886;2022-08-14T02:45:23;14.80;;;11.83;;
1479;SDS011;732;51.698;4.886;2022-08-14T02:48:09;13.30;;;11.77;;
1479;SDS011;732;51.698;4.886;2022-08-14T02:51:00;15.97;;;13.30;;
1479;SDS011;732;51.698;4.886;2022-08-14T02:53:34;16.67;;;12.67;;
1479;SDS011;732;51.698;4.886;2022-08-14T02:56:08;15.97;;;12.87;;
1479;SDS011;732;51.698;4.886;2022-08-14T02:59:02;17.20;;;13.30;;
1479;SDS011;732;51.698;4.886;2022-08-14T03:01:32;15.07;;;12.70;;
1479;SDS011;732;51.698;4.886;2022-08-14T03:04:16;16.43;;;13.20;;
1479;SDS011;732;51.698;4.886;2022-08-14T03:06:46;15.47;;;12.73;;
1479;SDS011;732;51.698;4.886;2022-08-14T03:09:33;16.80;;;13.37;;
1479;SDS011;732;51.698;4.886;2022-08-14T03:12:24;16.60;;;12.03;;
1479;SDS011;732;51.698;4.886;2022-08-14T03:14:59;13.93;;;12.43;;
1479;SDS011;732;51.698;4.886;2022-08-14T03:17:41;13.70;;;12.27;;
1479;SDS011;732;51.698;4.886;2022-08-14T03:20:23;16.87;;;13.37;;
1479;SDS011;732;51.698;4.886;2022-08-14T03:22:54;15.23;;;13.00;;
1479;SDS011;732;51.698;4.886;2022-08-14T03:25:29;18.70;;;14.53;;
1479;SDS011;732;51.698;4.886;2022-08-14T03:28:03;17.20;;;12.13;;
1479;SDS011;732;51.698;4.886;2022-08-14T03:30:41;13.57;;;12.17;;
1479;SDS011;732;51.698;4.886;2022-08-14T03:33:11;17.83;;;12.40;;
1479;SDS011;732;51.698;4.886;2022-08-14T03:35:39;18.60;;;13.43;;
1479;SDS011;732;51.698;4.886;2022-08-14T03:38:28;17.83;;;14.60;;
1479;SDS011;732;51.698;4.886;2022-08-14T03:41:19;17.33;;;13.60;;
1479;SDS011;732;51.698;4.886;2022-08-14T03:43:51;17.20;;;14.20;;
1479;SDS011;732;51.698;4.886;2022-08-14T03:46:27;21.30;;;14.67;;
1479;SDS011;732;51.698;4.886;2022-08-14T03:49:21;18.27;;;14.80;;
1479;SDS011;732;51.698;4.886;2022-08-14T03:51:55;19.30;;;13.93;;
1479;SDS011;732;51.698;4.886;2022-08-14T03:54:26;17.47;;;13.73;;
1479;SDS011;732;51.698;4.886;2022-08-14T03:56:55;15.60;;;13.50;;
1479;SDS011;732;51.698;4.886;2022-08-14T03:59:28;17.30;;;13.77;;
1479;SDS011;732;51.698;4.886;2022-08-14T04:01:59;17.07;;;14.33;;
1479;SDS011;732;51.698;4.886;2022-08-14T04:04:30;22.63;;;14.47;;
1479;SDS011;732;51.698;4.886;2022-08-14T04:06:59;20.00;;;15.37;;
1479;SDS011;732;51.698;4.886;2022-08-14T04:09:28;26.00;;;15.43;;
1479;SDS011;732;51.698;4.886;2022-08-14T04:11:56;26.43;;;15.07;;
1479;SDS011;732;51.698;4.886;2022-08-14T04:14:27;18.40;;;13.37;;
1479;SDS011;732;51.698;4.886;2022-08-14T04:16:55;17.43;;;15.20;;
1479;SDS011;732;51.698;4.886;2022-08-14T04:19:25;20.87;;;14.33;;
1479;SDS011;732;51.698;4.886;2022-08-14T04:22:02;18.83;;;14.57;;
1479;SDS011;732;51.698;4.886;2022-08-14T04:24:33;20.00;;;15.70;;
1479;SDS011;732;51.698;4.886;2022-08-14T04:27:04;23.87;;;15.43;;
1479;SDS011;732;51.698;4.886;2022-08-14T04:29:35;17.83;;;15.07;;
1479;SDS011;732;51.698;4.886;2022-08-14T04:32:05;17.40;;;15.20;;
1479;SDS011;732;51.698;4.886;2022-08-14T04:34:56;18.43;;;14.43;;
1479;SDS011;732;51.698;4.886;2022-08-14T04:37:25;18.70;;;15.77;;
1479;SDS011;732;51.698;4.886;2022-08-14T04:40:19;18.30;;;14.90;;
1479;SDS011;732;51.698;4.886;2022-08-14T04:43:06;21.47;;;14.37;;
1479;SDS011;732;51.698;4.886;2022-08-14T04:46:05;22.70;;;15.20;;
1479;SDS011;732;51.698;4.886;2022-08-14T04:48:56;22.00;;;15.70;;
1479;SDS011;732;51.698;4.886;2022-08-14T04:51:26;18.67;;;15.23;;
1479;SDS011;732;51.698;4.886;2022-08-14T04:54:15;23.50;;;15.80;;
1479;SDS011;732;51.698;4.886;2022-08-14T04:56:43;21.10;;;16.03;;
1479;SDS011;732;51.698;4.886;2022-08-14T04:59:12;22.27;;;16.37;;
1479;SDS011;732;51.698;4.886;2022-08-14T05:01:40;19.13;;;15.77;;
1479;SDS011;732;51.698;4.886;2022-08-14T05:04:17;22.17;;;17.60;;
1479;SDS011;732;51.698;4.886;2022-08-14T05:06:49;17.83;;;15.33;;
1479;SDS011;732;51.698;4.886;2022-08-14T05:09:20;21.03;;;16.23;;
1479;SDS011;732;51.698;4.886;2022-08-14T05:11:49;16.80;;;14.43;;
1479;SDS011;732;51.698;4.886;2022-08-14T05:14:19;16.57;;;14.43;;
1479;SDS011;732;51.698;4.886;2022-08-14T05:17:08;19.33;;;13.63;;
1479;SDS011;732;51.698;4.886;2022-08-14T05:19:37;20.60;;;16.37;;
1479;SDS011;732;51.698;4.886;2022-08-14T05:22:28;18.57;;;15.07;;
1479;SDS011;732;51.698;4.886;2022-08-14T05:24:56;23.60;;;14.60;;
1479;SDS011;732;51.698;4.886;2022-08-14T05:27:25;19.03;;;14.80;;
1479;SDS011;732;51.698;4.886;2022-08-14T05:29:56;19.77;;;17.00;;
1479;SDS011;732;51.698;4.886;2022-08-14T05:32:26;22.10;;;16.10;;
1479;SDS011;732;51.698;4.886;2022-08-14T05:34:55;19.30;;;15.17;;
1479;SDS011;732;51.698;4.886;2022-08-14T05:37:25;18.67;;;15.93;;
1479;SDS011;732;51.698;4.886;2022-08-14T05:39:57;16.67;;;14.40;;
1479;SDS011;732;51.698;4.886;2022-08-14T05:42:27;18.13;;;14.57;;
1479;SDS011;732;51.698;4.886;2022-08-14T05:45:04;19.10;;;14.40;;
1479;SDS011;732;51.698;4.886;2022-08-14T05:47:39;17.40;;;14.70;;
1479;SDS011;732;51.698;4.886;2022-08-14T05:50:09;20.40;;;15.63;;
1479;SDS011;732;51.698;4.886;2022-08-14T05:52:45;18.87;;;14.50;;
1479;SDS011;732;51.698;4.886;2022-08-14T05:55:17;19.97;;;15.67;;
1479;SDS011;732;51.698;4.886;2022-08-14T05:57:52;19.17;;;14.77;;
1479;SDS011;732;51.698;4.886;2022-08-14T06:00:26;23.13;;;17.17;;
1479;SDS011;732;51.698;4.886;2022-08-14T06:03:05;19.10;;;15.00;;
1479;SDS011;732;51.698;4.886;2022-08-14T06:05:37;21.17;;;15.50;;
1479;SDS011;732;51.698;4.886;2022-08-14T06:08:12;19.33;;;14.50;;
1479;SDS011;732;51.698;4.886;2022-08-14T06:11:04;19.27;;;14.80;;
1479;SDS011;732;51.698;4.886;2022-08-14T06:13:35;20.10;;;14.67;;
1479;SDS011;732;51.698;4.886;2022-08-14T06:16:12;20.90;;;14.80;;
1479;SDS011;732;51.698;4.886;2022-08-14T06:18:44;22.30;;;15.40;;
1479;SDS011;732;51.698;4.886;2022-08-14T06:21:18;18.90;;;15.00;;
1479;SDS011;732;51.698;4.886;2022-08-14T06:23:49;18.80;;;14.90;;
1479;SDS011;732;51.698;4.886;2022-08-14T06:26:18;20.33;;;15.07;;
1479;SDS011;732;51.698;4.886;2022-08-14T06:28:48;20.60;;;13.90;;
1479;SDS011;732;51.698;4.886;2022-08-14T06:31:18;21.30;;;14.80;;
1479;SDS011;732;51.698;4.886;2022-08-14T06:33:48;19.60;;;14.10;;
1479;SDS011;732;51.698;4.886;2022-08-14T06:36:36;22.00;;;14.20;;
1479;SDS011;732;51.698;4.886;2022-08-14T06:39:06;17.07;;;14.27;;
1479;SDS011;732;51.698;4.886;2022-08-14T06:41:36;18.50;;;14.20;;
1479;SDS011;732;51.698;4.886;2022-08-14T06:44:25;19.07;;;14.30;;
1479;SDS011;732;51.698;4.886;2022-08-14T06:46:58;20.40;;;14.67;;
1479;SDS011;732;51.698;4.886;2022-08-14T06:49:29;19.93;;;14.40;;
1479;SDS011;732;51.698;4.886;2022-08-14T06:52:09;18.43;;;13.80;;
1479;SDS011;732;51.698;4.886;2022-08-14T06:54:43;18.10;;;13.00;;
1479;SDS011;732;51.698;4.886;2022-08-14T06:57:12;16.20;;;13.33;;
1479;SDS011;732;51.698;4.886;2022-08-14T06:59:40;15.07;;;12.23;;
1479;SDS011;732;51.698;4.886;2022-08-14T07:02:09;17.37;;;12.50;;
1479;SDS011;732;51.698;4.886;2022-08-14T07:04:55;16.57;;;11.07;;
1479;SDS011;732;51.698;4.886;2022-08-14T07:07:49;15.33;;;12.27;;
1479;SDS011;732;51.698;4.886;2022-08-14T07:10:19;14.83;;;12.67;;
1479;SDS011;732;51.698;4.886;2022-08-14T07:12:50;15.07;;;11.27;;
1479;SDS011;732;51.698;4.886;2022-08-14T07:15:29;13.37;;;11.70;;
1479;SDS011;732;51.698;4.886;2022-08-14T07:18:05;16.03;;;11.87;;
1479;SDS011;732;51.698;4.886;2022-08-14T07:20:35;15.63;;;11.20;;
1479;SDS011;732;51.698;4.886;2022-08-14T07:23:05;12.43;;;11.10;;
1479;SDS011;732;51.698;4.886;2022-08-14T07:25:47;12.33;;;9.90;;
1479;SDS011;732;51.698;4.886;2022-08-14T07:28:18;15.93;;;11.17;;
1479;SDS011;732;51.698;4.886;2022-08-14T07:30:50;15.40;;;11.27;;
1479;SDS011;732;51.698;4.886;2022-08-14T07:33:31;14.23;;;10.20;;
1479;SDS011;732;51.698;4.886;2022-08-14T07:36:08;16.60;;;11.17;;
1479;SDS011;732;51.698;4.886;2022-08-14T07:38:55;14.00;;;11.60;;
1479;SDS011;732;51.698;4.886;2022-08-14T07:41:27;14.07;;;11.20;;
1479;SDS011;732;51.698;4.886;2022-08-14T07:43:59;12.83;;;10.33;;
1479;SDS011;732;51.698;4.886;2022-08-14T07:46:48;13.37;;;9.60;;
1479;SDS011;732;51.698;4.886;2022-08-14T07:49:17;11.83;;;10.07;;
1479;SDS011;732;51.698;4.886;2022-08-14T07:51:49;10.80;;;9.63;;
1479;SDS011;732;51.698;4.886;2022-08-14T07:54:17;11.63;;;10.40;;
1479;SDS011;732;51.698;4.886;2022-08-14T07:56:56;12.90;;;11.00;;
1479;SDS011;732;51.698;4.886;2022-08-14T07:59:26;13.53;;;9.87;;
1479;SDS011;732;51.698;4.886;2022-08-14T08:02:09;10.47;;;9.07;;
1479;SDS011;732;51.698;4.886;2022-08-14T08:04:47;11.80;;;9.73;;
1479;SDS011;732;51.698;4.886;2022-08-14T08:07:21;12.40;;;10.10;;
1479;SDS011;732;51.698;4.886;2022-08-14T08:09:56;18.60;;;9.20;;
1479;SDS011;732;51.698;4.886;2022-08-14T08:12:29;13.30;;;11.07;;
1479;SDS011;732;51.698;4.886;2022-08-14T08:14:59;10.90;;;9.80;;
1479;SDS011;732;51.698;4.886;2022-08-14T08:17:33;11.07;;;9.97;;
1479;SDS011;732;51.698;4.886;2022-08-14T08:20:18;10.93;;;9.83;;
1479;SDS011;732;51.698;4.886;2022-08-14T08:22:53;10.40;;;9.33;;
1479;SDS011;732;51.698;4.886;2022-08-14T08:25:31;10.67;;;9.57;;
1479;SDS011;732;51.698;4.886;2022-08-14T08:28:08;11.57;;;10.37;;
1479;SDS011;732;51.698;4.886;2022-08-14T08:30:51;9.63;;;8.63;;
1479;SDS011;732;51.698;4.886;2022-08-14T08:33:22;10.33;;;9.43;;
1479;SDS011;732;51.698;4.886;2022-08-14T08:35:58;10.80;;;9.80;;
1479;SDS011;732;51.698;4.886;2022-08-14T08:38:29;9.80;;;8.80;;
1479;SDS011;732;51.698;4.886;2022-08-14T08:41:17;10.50;;;9.50;;
1479;SDS011;732;51.698;4.886;2022-08-14T08:43:46;10.90;;;9.90;;
1479;SDS011;732;51.698;4.886;2022-08-14T08:46:18;9.20;;;8.30;;
1479;SDS011;732;51.698;4.886;2022-08-14T08:48:49;10.90;;;9.07;;
1479;SDS011;732;51.698;4.886;2022-08-14T08:51:19;8.80;;;8.00;;
1479;SDS011;732;51.698;4.886;2022-08-14T08:54:00;8.77;;;7.97;;
1479;SDS011;732;51.698;4.886;2022-08-14T08:56:34;9.07;;;8.20;;
1479;SDS011;732;51.698;4.886;2022-08-14T08:59:18;9.10;;;8.20;;
1479;SDS011;732;51.698;4.886;2022-08-14T09:01:57;9.07;;;8.27;;
1479;SDS011;732;51.698;4.886;2022-08-14T09:04:35;9.07;;;8.10;;
1479;SDS011;732;51.698;4.886;2022-08-14T09:07:18;9.20;;;8.27;;
1479;SDS011;732;51.698;4.886;2022-08-14T09:09:52;8.27;;;7.47;;
1479;SDS011;732;51.698;4.886;2022-08-14T09:12:25;7.67;;;7.07;;
1479;SDS011;732;51.698;4.886;2022-08-14T09:15:00;9.03;;;8.17;;
1479;SDS011;732;51.698;4.886;2022-08-14T09:17:38;9.83;;;8.83;;
1479;SDS011;732;51.698;4.886;2022-08-14T09:20:08;8.17;;;7.33;;
1479;SDS011;732;51.698;4.886;2022-08-14T09:22:51;8.93;;;8.03;;
1479;SDS011;732;51.698;4.886;2022-08-14T09:25:21;7.27;;;6.60;;
1479;SDS011;732;51.698;4.886;2022-08-14T09:28:10;8.10;;;7.30;;
1479;SDS011;732;51.698;4.886;2022-08-14T09:30:42;6.97;;;6.47;;
1479;SDS011;732;51.698;4.886;2022-08-14T09:33:20;7.30;;;6.60;;
1479;SDS011;732;51.698;4.886;2022-08-14T09:39:17;7.00;;;6.40;;
1479;SDS011;732;51.698;4.886;2022-08-14T09:42:10;6.43;;;5.60;;
1479;SDS011;732;51.698;4.886;2022-08-14T09:45:07;6.77;;;6.10;;
1479;SDS011;732;51.698;4.886;2022-08-14T09:47:45;6.77;;;6.17;;
1479;SDS011;732;51.698;4.886;2022-08-14T09:50:22;8.47;;;7.77;;
1479;SDS011;732;51.698;4.886;2022-08-14T09:52:54;7.57;;;6.90;;
1479;SDS011;732;51.698;4.886;2022-08-14T09:55:27;8.37;;;7.60;;
1479;SDS011;732;51.698;4.886;2022-08-14T09:58:09;8.27;;;7.57;;
1479;SDS011;732;51.698;4.886;2022-08-14T10:00:48;9.37;;;7.83;;
1479;SDS011;732;51.698;4.886;2022-08-14T10:03:27;8.00;;;6.90;;
1479;SDS011;732;51.698;4.886;2022-08-14T10:06:06;8.17;;;7.43;;
1479;SDS011;732;51.698;4.886;2022-08-14T10:08:43;8.50;;;7.70;;
1479;SDS011;732;51.698;4.886;2022-08-14T10:11:18;9.37;;;7.90;;
1479;SDS011;732;51.698;4.886;2022-08-14T10:13:50;7.80;;;7.10;;
1479;SDS011;732;51.698;4.886;2022-08-14T10:16:22;7.27;;;6.67;;
1479;SDS011;732;51.698;4.886;2022-08-14T10:19:02;6.80;;;6.20;;
1479;SDS011;732;51.698;4.886;2022-08-14T10:21:35;7.47;;;6.63;;
1479;SDS011;732;51.698;4.886;2022-08-14T10:24:25;7.20;;;6.60;;
1479;SDS011;732;51.698;4.886;2022-08-14T10:27:03;8.07;;;6.60;;
1479;SDS011;732;51.698;4.886;2022-08-14T10:29:46;7.13;;;6.43;;
1479;SDS011;732;51.698;4.886;2022-08-14T10:32:17;6.67;;;6.07;;
1479;SDS011;732;51.698;4.886;2022-08-14T10:35:04;8.00;;;7.10;;
1479;SDS011;732;51.698;4.886;2022-08-14T10:37:41;6.73;;;6.13;;
1479;SDS011;732;51.698;4.886;2022-08-14T10:40:14;7.30;;;6.60;;
1479;SDS011;732;51.698;4.886;2022-08-14T10:43:17;6.60;;;6.00;;
1479;SDS011;732;51.698;4.886;2022-08-14T10:45:55;6.53;;;5.93;;
1479;SDS011;732;51.698;4.886;2022-08-14T10:48:57;6.23;;;5.67;;
1479;SDS011;732;51.698;4.886;2022-08-14T10:51:31;6.47;;;5.87;;
1479;SDS011;732;51.698;4.886;2022-08-14T10:54:04;6.50;;;6.00;;
1479;SDS011;732;51.698;4.886;2022-08-14T10:56:55;6.30;;;5.70;;
1479;SDS011;732;51.698;4.886;2022-08-14T10:59:23;6.13;;;5.60;;
1479;SDS011;732;51.698;4.886;2022-08-14T11:02:02;6.60;;;6.00;;
1479;SDS011;732;51.698;4.886;2022-08-14T11:05:05;6.53;;;6.03;;
1479;SDS011;732;51.698;4.886;2022-08-14T11:07:38;6.43;;;5.80;;
1479;SDS011;732;51.698;4.886;2022-08-14T11:10:09;6.00;;;5.50;;
1479;SDS011;732;51.698;4.886;2022-08-14T11:12:41;7.47;;;6.77;;
1479;SDS011;732;51.698;4.886;2022-08-14T11:15:14;5.83;;;5.40;;
1479;SDS011;732;51.698;4.886;2022-08-14T11:17:44;7.17;;;6.57;;
1479;SDS011;732;51.698;4.886;2022-08-14T11:20:15;6.83;;;5.90;;
1479;SDS011;732;51.698;4.886;2022-08-14T11:22:52;6.97;;;6.27;;
1479;SDS011;732;51.698;4.886;2022-08-14T11:25:24;6.03;;;5.53;;
1479;SDS011;732;51.698;4.886;2022-08-14T11:28:09;5.73;;;5.33;;
1479;SDS011;732;51.698;4.886;2022-08-14T11:30:46;6.70;;;6.10;;
1479;SDS011;732;51.698;4.886;2022-08-14T11:33:23;5.50;;;5.00;;
1479;SDS011;732;51.698;4.886;2022-08-14T11:35:58;5.33;;;4.93;;
1479;SDS011;732;51.698;4.886;2022-08-14T11:38:34;5.70;;;5.20;;
1479;SDS011;732;51.698;4.886;2022-08-14T11:41:03;4.93;;;4.53;;
1479;SDS011;732;51.698;4.886;2022-08-14T11:43:36;5.47;;;5.00;;
1479;SDS011;732;51.698;4.886;2022-08-14T11:46:07;5.30;;;4.80;;
1479;SDS011;732;51.698;4.886;2022-08-14T11:48:56;5.13;;;4.70;;
1479;SDS011;732;51.698;4.886;2022-08-14T11:51:31;4.97;;;4.57;;
1479;SDS011;732;51.698;4.886;2022-08-14T11:54:17;5.27;;;4.87;;
1479;SDS011;732;51.698;4.886;2022-08-14T11:56:59;5.80;;;5.30;;
1479;SDS011;732;51.698;4.886;2022-08-14T11:59:30;4.97;;;4.57;;
1479;SDS011;732;51.698;4.886;2022-08-14T12:02:07;6.90;;;4.47;;
1479;SDS011;732;51.698;4.886;2022-08-14T12:04:57;4.60;;;4.20;;
1479;SDS011;732;51.698;4.886;2022-08-14T12:07:29;4.27;;;3.97;;
1479;SDS011;732;51.698;4.886;2022-08-14T12:10:01;4.13;;;3.83;;
1479;SDS011;732;51.698;4.886;2022-08-14T12:12:49;4.40;;;4.00;;
1479;SDS011;732;51.698;4.886;2022-08-14T12:15:29;3.83;;;3.53;;
1479;SDS011;732;51.698;4.886;2022-08-14T12:18:01;4.13;;;3.83;;
1479;SDS011;732;51.698;4.886;2022-08-14T12:20:37;4.30;;;3.90;;
1479;SDS011;732;51.698;4.886;2022-08-14T12:23:20;4.23;;;3.93;;
1479;SDS011;732;51.698;4.886;2022-08-14T12:26:04;4.23;;;3.93;;
1479;SDS011;732;51.698;4.886;2022-08-14T12:29:03;3.97;;;3.67;;
1479;SDS011;732;51.698;4.886;2022-08-14T12:31:34;3.97;;;3.67;;
1479;SDS011;732;51.698;4.886;2022-08-14T12:34:12;4.50;;;4.20;;
1479;SDS011;732;51.698;4.886;2022-08-14T12:36:46;4.17;;;3.87;;
1479;SDS011;732;51.698;4.886;2022-08-14T12:39:18;4.03;;;3.60;;
1479;SDS011;732;51.698;4.886;2022-08-14T12:41:52;3.93;;;3.63;;
1479;SDS011;732;51.698;4.886;2022-08-14T12:44:31;4.53;;;4.13;;
1479;SDS011;732;51.698;4.886;2022-08-14T12:47:02;4.20;;;3.90;;
1479;SDS011;732;51.698;4.886;2022-08-14T12:49:33;4.10;;;3.70;;
1479;SDS011;732;51.698;4.886;2022-08-14T12:52:02;4.80;;;4.40;;
1479;SDS011;732;51.698;4.886;2022-08-14T12:54:42;4.50;;;4.20;;
1479;SDS011;732;51.698;4.886;2022-08-14T12:57:37;4.30;;;4.00;;
1479;SDS011;732;51.698;4.886;2022-08-14T13:00:09;3.97;;;3.67;;
1479;SDS011;732;51.698;4.886;2022-08-14T13:02:49;4.53;;;4.13;;
1479;SDS011;732;51.698;4.886;2022-08-14T13:05:23;4.77;;;4.40;;
1479;SDS011;732;51.698;4.886;2022-08-14T13:07:54;4.87;;;4.47;;
1479;SDS011;732;51.698;4.886;2022-08-14T13:10:24;5.10;;;4.70;;
1479;SDS011;732;51.698;4.886;2022-08-14T13:13:19;4.97;;;4.57;;
1479;SDS011;732;51.698;4.886;2022-08-14T13:15:52;5.17;;;4.77;;
1479;SDS011;732;51.698;4.886;2022-08-14T13:18:22;5.53;;;5.03;;
1479;SDS011;732;51.698;4.886;2022-08-14T13:20:54;4.83;;;4.50;;
1479;SDS011;732;51.698;4.886;2022-08-14T13:23:28;5.00;;;4.60;;
1479;SDS011;732;51.698;4.886;2022-08-14T13:26:03;4.90;;;4.50;;
1479;SDS011;732;51.698;4.886;2022-08-14T13:28:34;4.67;;;4.27;;
1479;SDS011;732;51.698;4.886;2022-08-14T13:31:28;4.90;;;4.50;;
1479;SDS011;732;51.698;4.886;2022-08-14T13:33:59;5.60;;;5.20;;
1479;SDS011;732;51.698;4.886;2022-08-14T13:36:30;4.23;;;3.93;;
1479;SDS011;732;51.698;4.886;2022-08-14T13:39:20;5.03;;;4.63;;
1479;SDS011;732;51.698;4.886;2022-08-14T13:41:51;4.40;;;4.00;;
1479;SDS011;732;51.698;4.886;2022-08-14T13:44:22;4.70;;;4.30;;
1479;SDS011;732;51.698;4.886;2022-08-14T13:46:54;4.87;;;4.47;;
1479;SDS011;732;51.698;4.886;2022-08-14T13:49:23;4.03;;;3.73;;
1479;SDS011;732;51.698;4.886;2022-08-14T13:51:54;4.30;;;3.97;;
1479;SDS011;732;51.698;4.886;2022-08-14T13:54:51;4.50;;;4.20;;
1479;SDS011;732;51.698;4.886;2022-08-14T13:57:21;4.50;;;4.10;;
1479;SDS011;732;51.698;4.886;2022-08-14T13:59:57;4.50;;;4.10;;
1479;SDS011;732;51.698;4.886;2022-08-14T14:02:37;4.53;;;4.23;;
1479;SDS011;732;51.698;4.886;2022-08-14T14:05:12;4.13;;;3.83;;
1479;SDS011;732;51.698;4.886;2022-08-14T14:07:47;4.97;;;4.57;;
1479;SDS011;732;51.698;4.886;2022-08-14T14:10:19;4.43;;;4.07;;
1479;SDS011;732;51.698;4.886;2022-08-14T14:12:53;4.70;;;4.30;;
1479;SDS011;732;51.698;4.886;2022-08-14T14:15:23;5.47;;;5.07;;
1479;SDS011;732;51.698;4.886;2022-08-14T14:17:59;4.73;;;4.30;;
1479;SDS011;732;51.698;4.886;2022-08-14T14:20:29;4.90;;;4.50;;
1479;SDS011;732;51.698;4.886;2022-08-14T14:23:02;4.33;;;4.03;;
1479;SDS011;732;51.698;4.886;2022-08-14T14:25:38;4.80;;;4.40;;
1479;SDS011;732;51.698;4.886;2022-08-14T14:28:21;5.00;;;4.67;;
1479;SDS011;732;51.698;4.886;2022-08-14T14:31:00;4.97;;;4.33;;
1479;SDS011;732;51.698;4.886;2022-08-14T14:33:33;4.57;;;4.27;;
1479;SDS011;732;51.698;4.886;2022-08-14T14:36:22;4.73;;;4.43;;
1479;SDS011;732;51.698;4.886;2022-08-14T14:38:56;4.83;;;4.43;;
1479;SDS011;732;51.698;4.886;2022-08-14T14:41:28;4.70;;;4.30;;
1479;SDS011;732;51.698;4.886;2022-08-14T14:44:04;4.70;;;4.30;;
1479;SDS011;732;51.698;4.886;2022-08-14T14:46:36;4.60;;;4.27;;
1479;SDS011;732;51.698;4.886;2022-08-14T14:49:08;5.47;;;5.07;;
1479;SDS011;732;51.698;4.886;2022-08-14T14:51:40;4.80;;;4.40;;
1479;SDS011;732;51.698;4.886;2022-08-14T14:54:17;4.20;;;3.90;;
1479;SDS011;732;51.698;4.886;2022-08-14T14:57:03;5.60;;;5.03;;
1479;SDS011;732;51.698;4.886;2022-08-14T14:59:34;5.27;;;4.77;;
1479;SDS011;732;51.698;4.886;2022-08-14T15:02:06;5.10;;;4.50;;
1479;SDS011;732;51.698;4.886;2022-08-14T15:04:36;5.03;;;4.43;;
1479;SDS011;732;51.698;4.886;2022-08-14T15:07:09;5.10;;;4.80;;
1479;SDS011;732;51.698;4.886;2022-08-14T15:09:41;5.13;;;4.63;;
1479;SDS011;732;51.698;4.886;2022-08-14T15:12:13;4.87;;;4.47;;
1479;SDS011;732;51.698;4.886;2022-08-14T15:15:02;4.70;;;4.40;;
1479;SDS011;732;51.698;4.886;2022-08-14T15:17:35;4.50;;;4.20;;
1479;SDS011;732;51.698;4.886;2022-08-14T15:20:08;4.50;;;4.13;;
1479;SDS011;732;51.698;4.886;2022-08-14T15:22:56;4.97;;;4.57;;
1479;SDS011;732;51.698;4.886;2022-08-14T15:25:33;5.10;;;4.70;;
1479;SDS011;732;51.698;4.886;2022-08-14T15:28:03;5.10;;;4.63;;
1479;SDS011;732;51.698;4.886;2022-08-14T15:30:38;4.60;;;4.20;;
1479;SDS011;732;51.698;4.886;2022-08-14T15:33:09;4.80;;;4.40;;
1479;SDS011;732;51.698;4.886;2022-08-14T15:35:39;4.90;;;4.50;;
1479;SDS011;732;51.698;4.886;2022-08-14T15:38:11;4.93;;;4.43;;
1479;SDS011;732;51.698;4.886;2022-08-14T15:40:43;4.30;;;4.00;;
1479;SDS011;732;51.698;4.886;2022-08-14T15:43:21;4.50;;;4.20;;
1479;SDS011;732;51.698;4.886;2022-08-14T15:45:56;4.87;;;4.47;;
1479;SDS011;732;51.698;4.886;2022-08-14T15:48:27;4.80;;;4.50;;
1479;SDS011;732;51.698;4.886;2022-08-14T15:50:57;4.80;;;4.40;;
1479;SDS011;732;51.698;4.886;2022-08-14T15:53:25;4.40;;;4.10;;
1479;SDS011;732;51.698;4.886;2022-08-14T15:55:57;5.33;;;4.83;;
1479;SDS011;732;51.698;4.886;2022-08-14T15:58:27;4.97;;;4.57;;
1479;SDS011;732;51.698;4.886;2022-08-14T16:00:55;5.33;;;4.83;;
1479;SDS011;732;51.698;4.886;2022-08-14T16:04:03;5.60;;;5.10;;
1479;SDS011;732;51.698;4.886;2022-08-14T16:06:32;5.70;;;5.20;;
1479;SDS011;732;51.698;4.886;2022-08-14T16:09:03;5.47;;;5.07;;
1479;SDS011;732;51.698;4.886;2022-08-14T16:11:36;4.70;;;4.30;;
1479;SDS011;732;51.698;4.886;2022-08-14T16:14:16;4.80;;;4.23;;
1479;SDS011;732;51.698;4.886;2022-08-14T16:16:47;5.47;;;5.07;;
1479;SDS011;732;51.698;4.886;2022-08-14T16:19:28;4.93;;;4.53;;